Time;durP1;ratioP1;P1;durP2;ratioP2;P2;SDS_P1;SDS_P2;PMS_P1;PMS_P2;Temp;Humidity;BMP_temperature;BMP_pressure;BME280_temperature;BME280_humidity;BME280_pressure;Samples;Min_cycle;Max_cycle;Signal;HPM_P1;HPM_P2
2022/01/21 00:02:33;;;;;;;7.18;2.03;;;8.60;49.90;;;;;;6287823;28;20404;-70
2022/01/21 00:05:34;;;;;;;2.00;1.20;;;8.50;50.00;;;;;;6322840;28;20056;-72
2022/01/21 00:08:37;;;;;;;4.05;1.20;;;8.50;50.10;;;;;;6298326;28;20726;-69
2022/01/21 00:11:40;;;;;;;6.50;1.90;;;8.50;50.10;;;;;;6287679;28;20039;-69
2022/01/21 00:14:43;;;;;;;11.45;1.80;;;8.50;50.10;;;;;;6322319;28;20103;-70
2022/01/21 00:17:44;;;;;;;6.85;2.15;;;8.50;50.20;;;;;;6304176;28;20107;-69
2022/01/21 00:30:44;;;;;;;2.00;1.40;;;8.50;50.60;;;;;;6321993;28;20069;-69
2022/01/21 00:33:46;;;;;;;5.18;1.58;;;8.40;50.60;;;;;;6321407;28;20031;-69
2022/01/21 00:36:47;;;;;;;5.25;1.75;;;8.40;50.70;;;;;;6303928;28;20663;-70
2022/01/21 00:39:54;;;;;;;3.55;1.60;;;8.40;50.90;;;;;;6303513;28;20024;-70
2022/01/21 00:43:11;;;;;;;5.47;2.20;;;8.40;50.90;;;;;;6303842;28;20024;-70
2022/01/21 00:46:13;;;;;;;6.60;2.40;;;8.40;51.00;;;;;;6320577;28;20028;-70
2022/01/21 00:49:14;;;;;;;8.68;2.15;;;8.30;50.90;;;;;;6303588;28;20035;-70
2022/01/21 00:52:15;;;;;;;4.78;1.95;;;8.30;51.00;;;;;;6286951;28;20108;-69
2022/01/21 00:55:16;;;;;;;3.22;1.45;;;8.30;50.90;;;;;;6286833;28;20039;-69
2022/01/21 00:58:17;;;;;;;4.75;2.42;;;8.30;51.00;;;;;;6320311;28;20052;-69
2022/01/21 01:01:18;;;;;;;7.40;1.80;;;8.30;51.00;;;;;;6286723;28;20024;-69
2022/01/21 01:04:19;;;;;;;6.50;1.45;;;8.30;51.10;;;;;;6286279;28;20651;-70
2022/01/21 01:07:20;;;;;;;9.25;1.52;;;8.20;51.10;;;;;;6286666;28;20468;-69
2022/01/21 01:10:36;;;;;;;1.58;1.25;;;8.20;51.10;;;;;;6298890;28;20024;-69
2022/01/21 01:20:17;;;;;;;5.18;1.42;;;8.20;51.10;;;;;;6320676;28;20359;-71
2022/01/21 01:29:46;;;;;;;2.25;1.33;;;8.10;51.20;;;;;;6302529;28;20032;-71
2022/01/21 01:32:48;;;;;;;4.25;1.83;;;8.10;51.30;;;;;;6299664;28;20028;-70
2022/01/21 01:35:50;;;;;;;3.50;1.23;;;8.10;51.50;;;;;;6286057;28;20031;-70
2022/01/21 01:51:50;;;;;;;2.58;1.30;;;8.10;51.60;;;;;;6302027;28;20031;-70
2022/01/21 01:54:54;;;;;;;3.05;1.35;;;8.10;51.50;;;;;;6304438;28;20543;-69
2022/01/21 01:57:56;;;;;;;6.03;1.67;;;8.10;51.50;;;;;;6309636;28;20122;-71
2022/01/21 02:00:57;;;;;;;4.75;1.73;;;8.10;51.50;;;;;;6302032;28;20028;-69
2022/01/21 02:03:58;;;;;;;4.93;1.42;;;8.10;51.40;;;;;;6288912;28;20032;-70
2022/01/21 02:06:59;;;;;;;4.88;2.47;;;8.10;51.40;;;;;;6301633;28;20618;-70
2022/01/21 02:10:01;;;;;;;3.38;1.35;;;8.10;51.40;;;;;;6319925;28;20153;-72
2022/01/21 02:13:18;;;;;;;9.32;1.70;;;8.10;51.40;;;;;;6319276;28;20458;-70
2022/01/21 02:22:51;;;;;;;3.80;1.65;;;8.10;51.20;;;;;;6299708;28;20127;-70
2022/01/21 02:25:52;;;;;;;3.15;1.20;;;8.10;51.10;;;;;;6300876;28;20024;-70
2022/01/21 02:28:54;;;;;;;2.40;1.33;;;8.10;51.00;;;;;;6319176;28;20430;-70
2022/01/21 02:31:58;;;;;;;3.53;1.42;;;8.10;50.90;;;;;;6281226;28;20043;-70
2022/01/21 02:34:59;;;;;;;3.88;1.27;;;8.00;50.80;;;;;;6294372;28;20409;-70
2022/01/21 02:38:01;;;;;;;2.20;1.40;;;8.10;50.70;;;;;;6295944;28;20029;-70
2022/01/21 02:41:02;;;;;;;3.58;1.02;;;8.10;50.50;;;;;;6301058;28;20106;-70
2022/01/21 02:44:04;;;;;;;7.63;1.55;;;8.10;50.30;;;;;;6318714;28;20027;-70
2022/01/21 02:47:06;;;;;;;5.22;1.70;;;8.10;50.00;;;;;;6282871;28;20031;-70
2022/01/21 02:50:13;;;;;;;;;;;8.10;50.00;;;;;;6301256;28;20457;-70
2022/01/21 02:53:38;;;;;;;2.15;1.05;;;8.10;49.90;;;;;;6300630;28;19916;-70
2022/01/21 02:56:40;;;;;;;1.77;1.20;;;8.10;49.70;;;;;;6284239;28;20115;-70
2022/01/21 02:59:44;;;;;;;3.38;1.10;;;8.10;49.60;;;;;;6284319;28;20521;-71
2022/01/21 03:02:45;;;;;;;3.17;1.20;;;8.10;49.60;;;;;;6283758;28;20028;-69
2022/01/21 03:05:46;;;;;;;6.25;1.23;;;8.00;49.50;;;;;;6282570;28;20490;-69
2022/01/21 03:08:49;;;;;;;2.22;1.05;;;8.00;49.30;;;;;;6283633;28;20027;-69
2022/01/21 03:11:51;;;;;;;5.38;1.35;;;8.00;49.20;;;;;;6318360;28;20050;-69
2022/01/21 03:14:52;;;;;;;3.10;1.20;;;8.10;49.10;;;;;;6300340;28;20321;-70
2022/01/21 03:17:53;;;;;;;2.22;1.17;;;8.10;49.10;;;;;;6317795;28;20047;-71
2022/01/21 03:20:55;;;;;;;0.93;0.70;;;8.10;48.80;;;;;;6317726;28;20024;-69
2022/01/21 03:23:57;;;;;;;2.72;0.80;;;8.00;48.50;;;;;;6300037;28;20387;-70
2022/01/21 03:26:59;;;;;;;3.60;0.82;;;8.00;48.50;;;;;;6281497;28;20597;-70
2022/01/21 03:30:03;;;;;;;4.18;1.50;;;8.00;48.30;;;;;;6283233;28;20028;-69
2022/01/21 03:33:11;;;;;;;1.60;0.75;;;8.00;48.20;;;;;;6283780;28;20024;-70
2022/01/21 03:36:13;;;;;;;0.90;0.85;;;8.00;48.20;;;;;;6299986;28;20524;-70
2022/01/21 03:39:14;;;;;;;5.25;1.10;;;7.90;48.00;;;;;;6284603;28;20031;-70
2022/01/21 03:42:15;;;;;;;2.80;0.80;;;7.90;48.00;;;;;;6283182;28;20135;-70
2022/01/21 03:45:17;;;;;;;0.73;0.73;;;7.90;48.00;;;;;;6299876;28;20028;-70
2022/01/21 03:48:19;;;;;;;3.25;1.30;;;7.90;47.80;;;;;;6298806;28;20024;-70
2022/01/21 03:51:21;;;;;;;1.63;0.90;;;7.90;47.40;;;;;;6300512;28;20063;-70
2022/01/21 03:54:24;;;;;;;0.57;0.50;;;7.90;47.40;;;;;;6299746;28;20029;-70
2022/01/21 03:57:25;;;;;;;1.08;0.77;;;7.90;47.20;;;;;;6299999;28;20418;-70
2022/01/21 04:00:39;;;;;;;5.32;1.05;;;7.90;47.10;;;;;;6293543;28;20024;-70
2022/01/21 04:03:42;;;;;;;5.38;0.77;;;7.90;47.00;;;;;;6299580;28;20062;-70
2022/01/21 04:06:43;;;;;;;7.53;0.98;;;7.90;46.80;;;;;;6299584;28;20097;-70
2022/01/21 04:09:44;;;;;;;2.58;0.80;;;7.90;46.60;;;;;;6294804;28;20047;-71
2022/01/21 04:12:46;;;;;;;3.05;1.02;;;7.80;46.60;;;;;;6279795;28;20590;-71
2022/01/21 04:15:53;;;;;;;2.40;0.95;;;7.80;46.50;;;;;;6283242;28;20426;-70
2022/01/21 04:18:54;;;;;;;3.00;1.20;;;7.80;46.50;;;;;;6299285;28;20038;-69
2022/01/21 04:21:55;;;;;;;2.35;1.13;;;7.80;46.50;;;;;;6281907;28;20114;-70
2022/01/21 04:24:56;;;;;;;0.77;0.75;;;7.80;46.30;;;;;;6282579;28;20059;-72
2022/01/21 04:27:59;;;;;;;1.92;0.75;;;7.80;46.40;;;;;;6281385;28;20531;-70
2022/01/21 04:31:00;;;;;;;2.70;0.90;;;7.80;46.30;;;;;;6299596;28;20100;-70
2022/01/21 04:34:27;;;;;;;4.63;1.10;;;7.70;46.20;;;;;;6302553;28;20411;-70
2022/01/21 04:37:29;;;;;;;6.63;0.50;;;7.70;46.10;;;;;;6301928;28;20178;-70
2022/01/21 04:40:36;;;;;;;1.27;0.85;;;7.70;46.10;;;;;;6303642;28;20042;-70
2022/01/21 04:50:17;;;;;;;2.30;0.50;;;7.70;45.80;;;;;;6304390;28;20445;-71
2022/01/21 04:53:26;;;;;;;1.55;0.68;;;7.70;45.80;;;;;;6287788;28;20050;-70
2022/01/21 04:56:37;;;;;;;3.60;0.98;;;7.70;45.80;;;;;;6288197;28;20167;-70
2022/01/21 04:59:39;;;;;;;2.72;0.75;;;7.70;45.70;;;;;;6303447;28;20016;-70
2022/01/21 05:02:40;;;;;;;1.17;0.73;;;7.70;45.70;;;;;;6313730;28;20036;-70
2022/01/21 05:05:44;;;;;;;1.20;0.75;;;7.70;45.70;;;;;;6271062;28;20032;-71
2022/01/21 05:08:54;;;;;;;3.15;0.90;;;7.70;45.70;;;;;;6300556;28;20028;-70
2022/01/21 05:11:57;;;;;;;8.32;1.38;;;7.70;45.60;;;;;;6295301;28;20032;-70
2022/01/21 05:18:02;;;;;;;3.78;0.88;;;7.60;45.20;;;;;;6302871;28;20028;-72
2022/01/21 05:21:34;;;;;;;4.32;1.30;;;7.60;45.30;;;;;;6297194;28;20039;-70
2022/01/21 05:24:40;;;;;;;6.50;1.08;;;7.60;45.20;;;;;;6299672;28;20040;-70
2022/01/21 05:27:43;;;;;;;6.18;1.00;;;7.60;45.20;;;;;;6286061;28;20105;-71
2022/01/21 05:30:44;;;;;;;0.82;0.60;;;7.60;45.10;;;;;;6302825;28;20035;-72
2022/01/21 05:33:50;;;;;;;2.15;0.93;;;7.60;45.10;;;;;;6303236;28;20103;-70
2022/01/21 05:37:11;;;;;;;2.67;0.85;;;7.50;45.00;;;;;;6320336;28;20052;-70
2022/01/21 05:40:22;;;;;;;0.52;0.45;;;7.50;45.10;;;;;;6297495;28;20024;-72
2022/01/21 05:43:46;;;;;;;1.13;0.80;;;7.60;45.00;;;;;;6319605;28;20108;-70
2022/01/21 05:47:07;;;;;;;5.55;0.82;;;7.50;44.80;;;;;;6304168;28;20024;-70
2022/01/21 05:50:27;;;;;;;2.60;0.73;;;7.50;44.80;;;;;;6316705;28;20131;-71
2022/01/21 05:53:34;;;;;;;8.88;0.80;;;7.60;44.90;;;;;;6302293;28;20738;-71
2022/01/21 05:56:54;;;;;;;3.17;0.90;;;7.60;44.90;;;;;;6304739;28;20028;-71
2022/01/21 06:00:07;;;;;;;2.63;0.88;;;7.60;45.00;;;;;;6313799;28;20031;-72
2022/01/21 06:03:09;;;;;;;3.17;0.93;;;7.60;44.70;;;;;;6301690;28;20039;-71
2022/01/21 06:06:11;;;;;;;3.70;0.93;;;7.60;44.50;;;;;;6319801;28;20035;-71
2022/01/21 06:09:12;;;;;;;2.95;0.70;;;7.60;44.50;;;;;;6284981;28;20032;-71
2022/01/21 06:12:13;;;;;;;3.50;1.02;;;7.60;44.60;;;;;;6278430;28;20032;-71
2022/01/21 06:15:14;;;;;;;0.57;0.57;;;7.60;44.60;;;;;;6284721;28;20097;-70
2022/01/21 06:18:15;;;;;;;1.80;0.63;;;7.60;44.70;;;;;;6318571;28;20028;-71
2022/01/21 06:21:16;;;;;;;3.30;0.90;;;7.60;44.70;;;;;;6300686;28;20035;-71
2022/01/21 06:24:17;;;;;;;5.70;1.30;;;7.60;44.80;;;;;;6299979;28;20071;-71
2022/01/21 06:27:25;;;;;;;2.53;0.88;;;7.60;44.80;;;;;;6298566;28;20115;-71
2022/01/21 06:30:26;;;;;;;3.35;1.05;;;7.60;44.80;;;;;;6300424;28;20032;-71
2022/01/21 06:33:28;;;;;;;2.78;1.30;;;7.60;44.80;;;;;;6299206;28;20040;-70
2022/01/21 06:36:29;;;;;;;1.92;0.77;;;7.50;44.80;;;;;;6313639;28;20016;-71
2022/01/21 06:39:30;;;;;;;1.50;0.90;;;7.50;44.90;;;;;;6296820;28;20054;-71
2022/01/21 06:42:31;;;;;;;1.50;0.68;;;7.40;44.90;;;;;;6293961;28;20035;-72
2022/01/21 06:45:32;;;;;;;4.50;0.75;;;7.40;45.00;;;;;;6309883;28;20183;-72
2022/01/21 06:48:33;;;;;;;1.85;0.80;;;7.40;45.20;;;;;;6304635;28;20114;-73
2022/01/21 06:51:35;;;;;;;5.72;1.45;;;7.30;45.20;;;;;;6309544;28;20028;-73
2022/01/21 06:54:35;;;;;;;4.40;1.58;;;7.30;45.30;;;;;;6295031;28;20670;-69
2022/01/21 06:57:39;;;;;;;4.15;0.93;;;7.40;45.40;;;;;;6294710;28;20012;-69
2022/01/21 07:00:40;;;;;;;3.65;0.90;;;7.30;45.30;;;;;;6316936;28;20453;-69
2022/01/21 07:03:41;;;;;;;1.00;0.60;;;6.90;45.10;;;;;;6280637;28;20512;-71
2022/01/21 07:06:42;;;;;;;1.95;0.65;;;7.30;45.30;;;;;;6293466;28;20024;-71
2022/01/21 07:09:43;;;;;;;3.15;0.98;;;7.30;45.30;;;;;;6296239;28;20028;-70
2022/01/21 07:12:45;;;;;;;0.70;0.70;;;7.30;45.30;;;;;;6305731;28;20028;-70
2022/01/21 07:15:46;;;;;;;1.77;1.08;;;7.30;45.30;;;;;;6276385;28;20419;-71
2022/01/21 07:18:47;;;;;;;1.35;0.95;;;7.30;45.30;;;;;;6294007;28;20048;-70
2022/01/21 07:21:48;;;;;;;2.25;0.90;;;7.30;45.30;;;;;;6317910;28;20052;-70
2022/01/21 07:24:49;;;;;;;10.20;1.65;;;7.30;45.40;;;;;;6299464;28;20048;-71
2022/01/21 07:27:50;;;;;;;7.63;0.95;;;7.30;45.30;;;;;;6299623;28;20020;-72
2022/01/21 07:30:52;;;;;;;1.77;0.88;;;7.30;45.30;;;;;;6282830;28;20043;-70
2022/01/21 07:33:53;;;;;;;2.60;1.15;;;7.30;45.30;;;;;;6317412;28;20032;-70
2022/01/21 07:36:55;;;;;;;2.15;1.00;;;7.30;45.20;;;;;;6298535;28;20204;-70
2022/01/21 07:39:56;;;;;;;4.72;1.20;;;7.30;45.10;;;;;;6293100;28;20107;-70
2022/01/21 07:42:57;;;;;;;3.05;0.90;;;7.30;44.80;;;;;;6297272;28;20020;-71
2022/01/21 07:45:58;;;;;;;3.35;1.00;;;7.20;44.70;;;;;;6299358;28;20513;-71
2022/01/21 07:49:00;;;;;;;6.82;0.88;;;7.20;44.60;;;;;;6298409;28;20036;-70
2022/01/21 07:52:01;;;;;;;3.65;1.10;;;7.20;44.50;;;;;;6317248;28;20035;-71
2022/01/21 07:55:02;;;;;;;8.77;0.93;;;7.20;44.70;;;;;;6276715;28;20017;-70
2022/01/21 07:58:04;;;;;;;2.85;1.38;;;7.20;44.60;;;;;;6294655;28;20134;-70
2022/01/21 08:01:05;;;;;;;1.20;0.93;;;7.30;44.60;;;;;;6291806;28;20050;-70
2022/01/21 08:04:07;;;;;;;2.10;1.00;;;7.30;44.50;;;;;;6314381;28;20031;-70
2022/01/21 08:07:10;;;;;;;3.85;1.08;;;7.30;44.50;;;;;;6317481;28;20216;-71
2022/01/21 08:10:11;;;;;;;2.05;0.82;;;7.30;44.50;;;;;;6311426;28;20036;-71
2022/01/21 08:13:12;;;;;;;9.38;1.48;;;7.30;44.50;;;;;;6302485;28;20088;-72
2022/01/21 08:16:13;;;;;;;2.83;0.88;;;7.30;44.40;;;;;;6304436;28;20024;-70
2022/01/21 08:19:14;;;;;;;4.22;1.05;;;7.40;44.40;;;;;;6287259;28;20028;-70
2022/01/21 08:22:15;;;;;;;3.42;1.05;;;7.40;44.40;;;;;;6321828;28;20020;-70
2022/01/21 08:25:17;;;;;;;3.72;1.38;;;7.40;44.40;;;;;;6285244;28;20423;-70
2022/01/21 08:28:18;;;;;;;3.17;0.80;;;7.40;44.30;;;;;;6300284;28;20024;-71
2022/01/21 08:31:20;;;;;;;8.88;1.02;;;7.50;44.30;;;;;;6303703;28;20039;-70
2022/01/21 08:34:20;;;;;;;4.13;0.80;;;7.60;44.20;;;;;;6301773;28;20031;-72
2022/01/21 08:37:22;;;;;;;6.13;1.50;;;7.60;44.70;;;;;;6296035;28;20020;-69
2022/01/21 08:40:41;;;;;;;1.13;0.85;;;7.70;44.00;;;;;;6281640;28;20334;-73
2022/01/21 08:43:43;;;;;;;5.82;1.65;;;7.80;43.90;;;;;;6282218;28;20052;-71
2022/01/21 08:46:44;;;;;;;1.02;0.73;;;7.80;43.70;;;;;;6302744;28;20043;-70
2022/01/21 08:49:48;;;;;;;1.92;1.27;;;7.90;43.70;;;;;;6281011;28;20042;-71
2022/01/21 08:52:53;;;;;;;5.80;1.23;;;8.00;43.60;;;;;;6321129;28;20043;-70
2022/01/21 08:55:55;;;;;;;2.08;1.10;;;8.10;43.50;;;;;;6300256;28;20031;-72
2022/01/21 08:58:57;;;;;;;6.35;1.52;;;8.10;43.40;;;;;;6316105;28;20024;-70
2022/01/21 09:01:58;;;;;;;7.55;1.27;;;8.10;43.40;;;;;;6320620;28;20024;-70
2022/01/21 09:04:59;;;;;;;4.03;1.08;;;8.10;43.40;;;;;;6321241;28;20036;-70
2022/01/21 09:08:01;;;;;;;1.50;0.90;;;8.20;43.50;;;;;;6284423;28;20023;-71
2022/01/21 09:11:04;;;;;;;4.30;1.30;;;8.20;43.50;;;;;;6286189;28;20047;-72
2022/01/21 09:14:06;;;;;;;4.38;1.27;;;8.20;43.50;;;;;;6298322;28;20028;-71
2022/01/21 09:17:07;;;;;;;1.77;1.15;;;8.30;43.50;;;;;;6312036;28;20541;-71
2022/01/21 09:20:08;;;;;;;5.18;1.42;;;8.30;43.40;;;;;;6315140;28;20032;-71
2022/01/21 09:23:09;;;;;;;3.00;1.20;;;8.30;43.40;;;;;;6282777;28;20063;-70
2022/01/21 09:26:10;;;;;;;18.67;1.70;;;8.30;43.30;;;;;;6299988;28;20032;-70
2022/01/21 09:29:11;;;;;;;1.70;1.23;;;8.40;43.30;;;;;;6320346;28;20452;-70
2022/01/21 09:32:12;;;;;;;6.10;1.83;;;8.40;43.20;;;;;;6317100;28;20107;-70
2022/01/21 09:35:13;;;;;;;4.07;1.20;;;8.40;43.10;;;;;;6321096;28;20024;-71
2022/01/21 09:38:16;;;;;;;1.70;0.95;;;8.30;43.10;;;;;;6302263;28;20074;-70
2022/01/21 09:41:18;;;;;;;2.95;1.40;;;8.30;43.20;;;;;;6302364;28;20024;-70
2022/01/21 09:44:22;;;;;;;2.80;1.33;;;8.30;43.20;;;;;;6301892;28;20494;-70
2022/01/21 09:47:23;;;;;;;5.00;1.35;;;8.30;43.30;;;;;;6318603;28;20434;-70
2022/01/21 09:50:24;;;;;;;3.08;1.20;;;8.30;43.40;;;;;;6301440;28;20044;-70
2022/01/21 09:53:34;;;;;;;7.30;1.60;;;8.40;43.40;;;;;;6319549;28;20024;-70
2022/01/21 09:56:38;;;;;;;5.10;1.67;;;8.40;43.30;;;;;;6278524;28;20102;-71
2022/01/21 09:59:39;;;;;;;8.35;1.25;;;8.40;43.30;;;;;;6284772;28;20035;-71
2022/01/21 10:02:42;;;;;;;2.28;0.98;;;8.40;43.30;;;;;;6283953;28;20032;-70
2022/01/21 10:05:47;;;;;;;3.20;1.35;;;8.50;43.30;;;;;;6301316;28;20032;-72
2022/01/21 10:08:50;;;;;;;1.70;1.40;;;8.50;43.30;;;;;;6311893;28;20031;-71
2022/01/21 10:11:52;;;;;;;2.88;1.23;;;8.50;43.30;;;;;;6318853;28;20082;-71
2022/01/21 10:14:55;;;;;;;2.00;1.10;;;8.50;43.10;;;;;;6301177;28;20446;-70
2022/01/21 10:18:23;;;;;;;6.97;1.60;;;8.50;43.10;;;;;;6300945;28;20016;-71
2022/01/21 10:21:30;;;;;;;3.63;1.50;;;8.60;43.20;;;;;;6312480;28;20040;-72
2022/01/21 10:24:33;;;;;;;4.20;1.30;;;8.60;43.10;;;;;;6300675;28;20441;-72
2022/01/21 10:27:38;;;;;;;3.97;1.20;;;8.70;42.90;;;;;;6284205;28;20028;-71
2022/01/21 10:30:42;;;;;;;5.50;1.83;;;8.70;42.80;;;;;;6283409;28;20034;-71
2022/01/21 10:33:56;;;;;;;8.57;2.00;;;8.70;42.90;;;;;;6283835;28;20064;-71
2022/01/21 10:37:04;;;;;;;12.13;1.77;;;8.70;43.00;;;;;;6300112;28;20066;-70
2022/01/21 10:40:08;;;;;;;5.30;1.83;;;8.70;43.10;;;;;;6284380;28;20030;-70
2022/01/21 10:43:18;;;;;;;4.88;2.45;;;9.10;43.20;;;;;;6300860;28;20138;-71
2022/01/21 10:46:19;;;;;;;2.65;1.25;;;8.80;43.00;;;;;;6299927;28;20344;-71
2022/01/21 10:49:20;;;;;;;5.10;1.67;;;8.80;42.90;;;;;;6298935;28;20128;-71
2022/01/21 10:52:32;;;;;;;4.57;1.05;;;8.80;42.90;;;;;;6296862;28;20111;-71
2022/01/21 10:55:38;;;;;;;1.52;1.02;;;8.80;42.90;;;;;;6278315;28;20495;-72
2022/01/21 10:58:44;;;;;;;2.67;1.27;;;8.90;42.80;;;;;;6299972;28;20460;-71
2022/01/21 11:01:58;;;;;;;9.07;1.42;;;8.90;42.80;;;;;;6283106;28;20088;-72
2022/01/21 11:05:01;;;;;;;3.95;1.20;;;9.00;42.80;;;;;;6317913;28;20024;-71
2022/01/21 11:08:09;;;;;;;2.97;1.50;;;9.00;42.60;;;;;;6279219;28;20108;-70
2022/01/21 11:11:11;;;;;;;4.10;1.42;;;9.10;42.60;;;;;;6300229;28;20028;-72
2022/01/21 11:14:22;;;;;;;3.70;1.67;;;9.10;43.00;;;;;;6299558;28;20120;-72
2022/01/21 11:17:23;;;;;;;4.20;1.75;;;9.10;42.40;;;;;;6282574;28;20116;-71
2022/01/21 11:20:35;;;;;;;11.13;1.73;;;9.10;42.30;;;;;;6318155;28;20032;-71
2022/01/21 11:23:37;;;;;;;6.10;1.55;;;9.10;42.20;;;;;;6317199;28;20052;-71
2022/01/21 11:26:39;;;;;;;2.72;1.40;;;9.20;42.10;;;;;;6282822;28;20114;-70
2022/01/21 11:29:43;;;;;;;3.17;1.20;;;9.20;42.10;;;;;;6299715;28;20039;-71
2022/01/21 11:32:45;;;;;;;4.68;2.08;;;9.30;42.00;;;;;;6281492;28;20055;-73
2022/01/21 11:35:49;;;;;;;5.82;1.80;;;9.40;41.80;;;;;;6299306;28;20055;-73
2022/01/21 11:38:54;;;;;;;6.78;1.45;;;9.50;41.60;;;;;;6282531;28;20042;-72
2022/01/21 11:41:57;;;;;;;2.58;1.20;;;9.70;41.50;;;;;;6282600;28;20067;-71
2022/01/21 11:45:03;;;;;;;3.40;1.67;;;9.70;41.20;;;;;;6300348;28;20044;-71
2022/01/21 11:51:32;;;;;;;4.60;1.70;;;9.90;40.90;;;;;;6313213;28;20043;-72
2022/01/21 11:54:41;;;;;;;5.07;1.38;;;9.90;40.60;;;;;;6300804;28;20038;-73
2022/01/21 11:57:42;;;;;;;3.90;1.45;;;10.00;40.50;;;;;;6297286;28;20030;-73
2022/01/21 12:00:47;;;;;;;3.67;1.00;;;10.10;40.10;;;;;;6319576;28;20063;-73
2022/01/21 12:03:55;;;;;;;3.38;1.55;;;10.10;40.10;;;;;;6301569;28;20066;-72
2022/01/21 12:06:58;;;;;;;4.50;2.38;;;10.20;39.90;;;;;;6284619;28;20036;-72
2022/01/21 12:10:21;;;;;;;4.45;1.27;;;10.30;39.90;;;;;;6281696;28;20059;-73
2022/01/21 12:13:30;;;;;;;3.90;1.75;;;10.40;39.80;;;;;;6300998;28;20028;-71
2022/01/21 12:20:10;;;;;;;7.22;1.35;;;10.50;39.30;;;;;;6176403;28;20038;-71
2022/01/21 12:23:20;;;;;;;5.35;1.60;;;10.50;39.00;;;;;;6181695;28;20053;-70
2022/01/21 12:26:29;;;;;;;4.55;1.20;;;10.50;38.90;;;;;;6193487;28;20351;-74
2022/01/21 12:29:32;;;;;;;3.50;1.38;;;10.60;39.00;;;;;;6171434;28;20078;-72
2022/01/21 12:33:09;;;;;;;1.88;1.05;;;10.60;39.00;;;;;;6190333;28;20061;-71
2022/01/21 12:36:32;;;;;;;3.15;1.05;;;10.70;39.10;;;;;;6101421;29;20036;-71
2022/01/21 12:39:48;;;;;;;2.95;1.58;;;10.70;38.90;;;;;;6102080;29;20095;-71
2022/01/21 12:42:49;;;;;;;5.78;1.50;;;10.80;38.90;;;;;;6117793;29;20088;-71
2022/01/21 12:46:02;;;;;;;8.65;1.90;;;10.80;38.80;;;;;;6117122;29;20095;-70
2022/01/21 12:49:26;;;;;;;4.93;1.27;;;10.90;38.70;;;;;;6104952;29;20044;-71
2022/01/21 12:52:51;;;;;;;3.70;1.73;;;10.90;38.70;;;;;;6093802;29;20290;-72
2022/01/21 12:56:03;;;;;;;4.32;1.35;;;10.90;38.30;;;;;;6141567;28;20052;-71
2022/01/21 12:59:06;;;;;;;7.93;1.10;;;10.80;38.80;;;;;;6225224;28;20085;-71
2022/01/21 13:02:07;;;;;;;3.38;1.23;;;10.70;38.20;;;;;;6224773;28;20045;-71
2022/01/21 13:05:22;;;;;;;4.90;1.02;;;10.70;38.10;;;;;;6241340;28;20048;-71
2022/01/21 13:08:58;;;;;;;6.05;1.15;;;10.70;38.10;;;;;;6234854;28;20117;-71
2022/01/21 13:12:04;;;;;;;3.33;1.45;;;10.70;38.20;;;;;;6261052;28;20494;-71
2022/01/21 13:15:05;;;;;;;5.18;1.25;;;10.70;37.90;;;;;;6302005;28;20059;-72
2022/01/21 13:18:15;;;;;;;4.00;1.38;;;10.80;37.90;;;;;;6301607;28;20358;-71
2022/01/21 13:21:16;;;;;;;6.07;1.58;;;10.80;37.80;;;;;;6286646;28;20447;-70
2022/01/21 13:24:30;;;;;;;11.77;1.13;;;10.90;37.70;;;;;;6298054;28;20044;-70
2022/01/21 13:27:33;;;;;;;3.83;1.23;;;10.90;37.50;;;;;;6294883;28;20438;-72
2022/01/21 13:30:37;;;;;;;4.72;1.08;;;10.90;37.20;;;;;;6289247;28;20029;-70
2022/01/21 13:33:38;;;;;;;2.90;0.80;;;10.80;36.90;;;;;;6276499;28;20048;-72
2022/01/21 13:36:54;;;;;;;2.58;1.20;;;10.80;36.90;;;;;;6295145;28;20023;-71
2022/01/21 13:39:55;;;;;;;4.32;0.82;;;10.80;37.30;;;;;;6289768;28;20024;-71
2022/01/21 13:43:15;;;;;;;7.03;1.10;;;10.80;37.20;;;;;;6293231;28;20025;-72
2022/01/21 13:46:16;;;;;;;3.20;1.00;;;10.80;36.80;;;;;;6293042;28;20109;-71
2022/01/21 13:49:25;;;;;;;9.45;1.00;;;10.70;36.70;;;;;;6274060;28;20039;-71
2022/01/21 13:52:38;;;;;;;3.22;1.17;;;10.70;36.70;;;;;;6292834;28;20298;-71
2022/01/21 13:55:46;;;;;;;5.53;1.63;;;10.70;36.50;;;;;;6292607;28;20035;-71
2022/01/21 13:58:48;;;;;;;7.20;1.52;;;10.70;36.20;;;;;;6294356;28;20032;-70
2022/01/21 14:01:59;;;;;;;4.57;0.95;;;10.70;36.10;;;;;;6293785;28;20028;-72
2022/01/21 14:05:02;;;;;;;6.90;1.20;;;10.70;36.30;;;;;;6291273;28;20071;-71
2022/01/21 14:08:12;;;;;;;13.00;1.40;;;10.70;36.60;;;;;;6292235;28;20105;-73
2022/01/21 14:11:23;;;;;;;10.95;1.23;;;10.80;36.50;;;;;;6287714;28;20029;-71
2022/01/21 14:14:25;;;;;;;3.28;1.00;;;10.70;36.50;;;;;;6292544;28;20036;-71
2022/01/21 14:17:26;;;;;;;3.60;1.23;;;10.80;36.50;;;;;;6293678;28;20017;-72
2022/01/21 14:20:31;;;;;;;3.35;1.50;;;10.80;36.40;;;;;;6294354;28;20040;-71
2022/01/21 14:23:37;;;;;;;3.65;1.40;;;10.90;36.50;;;;;;6302237;28;20044;-72
2022/01/21 14:26:40;;;;;;;3.22;1.25;;;10.90;36.60;;;;;;6297091;28;20088;-72
2022/01/21 14:29:42;;;;;;;24.60;2.08;;;11.10;36.50;;;;;;6317964;28;20020;-71
2022/01/21 14:32:52;;;;;;;3.10;1.10;;;11.10;36.40;;;;;;6283671;28;20054;-71
2022/01/21 14:35:53;;;;;;;6.30;1.48;;;11.20;36.30;;;;;;6300265;28;20107;-70
2022/01/21 14:39:16;;;;;;;8.52;1.45;;;11.30;36.20;;;;;;6318408;28;20089;-71
2022/01/21 14:42:24;;;;;;;9.98;1.33;;;11.40;36.00;;;;;;6298615;28;20020;-71
2022/01/21 14:45:25;;;;;;;5.80;1.92;;;11.50;35.80;;;;;;6300511;28;20074;-70
2022/01/21 14:48:28;;;;;;;2.63;1.50;;;11.50;35.80;;;;;;6282472;28;20073;-70
2022/01/21 14:52:01;;;;;;;1.70;1.20;;;11.50;35.80;;;;;;6282204;28;20429;-71
2022/01/21 14:55:15;;;;;;;3.28;1.40;;;11.50;35.80;;;;;;6300602;28;20032;-70
2022/01/21 14:58:24;;;;;;;4.97;1.92;;;11.50;35.60;;;;;;6300205;28;20516;-70
2022/01/21 15:01:25;;;;;;;4.35;1.38;;;11.40;35.60;;;;;;6284181;28;20023;-71
2022/01/21 15:04:26;;;;;;;5.82;1.98;;;11.30;35.80;;;;;;6299740;28;20028;-72
2022/01/21 15:07:29;;;;;;;10.10;1.70;;;11.30;35.90;;;;;;6279288;28;20081;-71
2022/01/21 15:17:03;;;;;;;4.68;1.13;;;11.10;36.10;;;;;;6305491;28;20028;-71
2022/01/21 15:20:04;;;;;;;2.05;1.08;;;11.00;36.10;;;;;;6285836;28;20039;-73
2022/01/21 15:23:06;;;;;;;4.20;1.30;;;11.00;36.10;;;;;;6294964;28;20537;-71
2022/01/21 15:26:07;;;;;;;1.23;1.13;;;10.90;36.00;;;;;;6288861;28;20464;-71
2022/01/21 15:29:09;;;;;;;2.45;1.30;;;10.90;36.10;;;;;;6288091;28;20024;-72
2022/01/21 15:32:11;;;;;;;5.93;1.88;;;10.80;36.10;;;;;;6287944;28;20512;-72
2022/01/21 15:35:12;;;;;;;2.17;1.17;;;10.70;36.30;;;;;;6287760;28;20030;-71
2022/01/21 15:38:14;;;;;;;2.38;1.40;;;10.70;36.40;;;;;;6287567;28;20025;-72
2022/01/21 15:41:15;;;;;;;5.47;1.88;;;10.70;37.10;;;;;;6277994;28;20020;-71
2022/01/21 15:44:16;;;;;;;3.30;1.35;;;10.60;36.60;;;;;;6270586;28;20699;-71
2022/01/21 15:47:17;;;;;;;5.38;1.92;;;10.50;36.70;;;;;;6287901;28;20127;-70
2022/01/21 15:50:20;;;;;;;4.93;2.15;;;10.50;36.80;;;;;;6288163;28;20064;-72
2022/01/21 15:53:22;;;;;;;7.07;1.95;;;10.50;36.80;;;;;;6306746;28;20354;-71
2022/01/21 15:56:23;;;;;;;3.42;1.48;;;10.40;36.80;;;;;;6286646;28;20017;-71
2022/01/21 15:59:24;;;;;;;4.45;1.80;;;10.40;36.90;;;;;;6306489;28;20020;-73
2022/01/21 16:02:27;;;;;;;13.63;1.65;;;10.50;37.60;;;;;;6316079;28;20075;-71
2022/01/21 16:05:28;;;;;;;11.40;1.63;;;10.30;37.00;;;;;;6302173;28;20387;-69
2022/01/21 16:08:29;;;;;;;5.53;1.75;;;10.20;37.20;;;;;;6314955;28;20488;-71
2022/01/21 16:11:30;;;;;;;5.35;1.58;;;10.20;37.30;;;;;;6291819;28;20123;-72
2022/01/21 16:14:32;;;;;;;4.65;1.73;;;10.10;37.40;;;;;;6316356;28;20043;-72
2022/01/21 16:17:33;;;;;;;8.73;1.77;;;10.10;37.50;;;;;;6298558;28;20483;-72
2022/01/21 16:20:35;;;;;;;4.85;1.45;;;10.00;37.50;;;;;;6316917;28;20085;-71
2022/01/21 16:23:36;;;;;;;18.55;2.38;;;10.00;37.50;;;;;;6296731;28;20429;-71
2022/01/21 16:26:39;;;;;;;4.05;1.40;;;10.00;37.60;;;;;;6316553;28;20095;-71
2022/01/21 16:29:41;;;;;;;2.75;1.42;;;9.90;37.60;;;;;;6320541;28;20395;-73
2022/01/21 16:32:42;;;;;;;4.68;1.05;;;9.90;37.60;;;;;;6287262;28;20027;-71
2022/01/21 16:35:43;;;;;;;15.50;2.22;;;9.90;38.30;;;;;;6303500;28;20052;-71
2022/01/21 16:38:45;;;;;;;3.80;1.65;;;9.80;37.70;;;;;;6316662;28;20439;-71
2022/01/21 16:41:46;;;;;;;5.68;1.92;;;9.70;37.90;;;;;;6298302;28;20028;-71
2022/01/21 16:44:47;;;;;;;4.18;1.70;;;9.60;37.80;;;;;;6300856;28;20051;-72
2022/01/21 16:47:49;;;;;;;11.77;2.17;;;9.50;37.90;;;;;;6301966;28;20134;-71
2022/01/21 16:50:51;;;;;;;5.55;1.90;;;9.50;38.00;;;;;;6303124;28;20028;-71
2022/01/21 16:53:58;;;;;;;7.53;2.15;;;9.40;38.10;;;;;;6302246;28;20057;-71
2022/01/21 16:56:59;;;;;;;5.65;1.70;;;9.40;38.40;;;;;;6303253;28;20103;-72
2022/01/21 17:00:01;;;;;;;4.50;1.65;;;9.30;38.60;;;;;;6286430;28;20024;-71
2022/01/21 17:03:03;;;;;;;4.30;1.60;;;9.10;38.80;;;;;;6302363;28;20032;-71
2022/01/21 17:06:04;;;;;;;4.22;1.95;;;9.10;39.10;;;;;;6287207;28;20111;-71
2022/01/21 17:09:06;;;;;;;8.02;2.85;;;9.00;39.30;;;;;;6296121;28;20541;-71
2022/01/21 17:12:07;;;;;;;4.82;1.55;;;8.90;39.40;;;;;;6314938;28;20579;-71
2022/01/21 17:15:09;;;;;;;4.68;1.83;;;8.90;39.60;;;;;;6321065;28;20028;-73